sensor_id;sensor_type;location;lat;lon;timestamp;pressure;altitude;pressure_sealevel;temperature;humidity
788;BME280;16074;42.708;23.312;2023-03-25T00:00:18;140931.88;;;10.86;85.86
788;BME280;16074;42.708;23.312;2023-03-25T00:02:50;140905.38;;;10.75;87.39
788;BME280;16074;42.708;23.312;2023-03-25T00:05:20;140894.53;;;10.70;87.38
788;BME280;16074;42.708;23.312;2023-03-25T00:07:50;140896.94;;;10.71;88.14
788;BME280;16074;42.708;23.312;2023-03-25T00:10:19;140916.19;;;10.79;88.50
788;BME280;16074;42.708;23.312;2023-03-25T00:12:48;140869.22;;;10.60;88.04
788;BME280;16074;42.708;23.312;2023-03-25T00:15:16;140865.63;;;10.59;89.17
788;BME280;16074;42.708;23.312;2023-03-25T00:17:44;140868.03;;;10.60;88.30
788;BME280;16074;42.708;23.312;2023-03-25T00:20:14;140843.97;;;10.50;89.46
788;BME280;16074;42.708;23.312;2023-03-25T00:22:42;140842.72;;;10.49;89.45
788;BME280;16074;42.708;23.312;2023-03-25T00:25:12;140862.00;;;10.57;90.50
788;BME280;16074;42.708;23.312;2023-03-25T00:27:43;140875.28;;;10.63;90.63
788;BME280;16074;42.708;23.312;2023-03-25T00:30:14;140878.88;;;10.64;90.67
788;BME280;16074;42.708;23.312;2023-03-25T00:32:43;140878.88;;;10.64;90.77
788;BME280;16074;42.708;23.312;2023-03-25T00:35:18;140883.69;;;10.66;90.22
788;BME280;16074;42.708;23.312;2023-03-25T00:37:46;140849.94;;;10.52;90.67
788;BME280;16074;42.708;23.312;2023-03-25T00:40:23;140865.63;;;10.59;89.41
788;BME280;16074;42.708;23.312;2023-03-25T00:42:52;140864.41;;;10.58;89.38
788;BME280;16074;42.708;23.312;2023-03-25T00:45:20;140836.72;;;10.47;89.16
788;BME280;16074;42.708;23.312;2023-03-25T00:47:50;140839.13;;;10.48;89.98
788;BME280;16074;42.708;23.312;2023-03-25T00:50:20;140823.50;;;10.41;89.77
788;BME280;16074;42.708;23.312;2023-03-25T00:52:48;140840.31;;;10.48;90.40
788;BME280;16074;42.708;23.312;2023-03-25T00:55:17;140848.78;;;10.52;90.84
788;BME280;16074;42.708;23.312;2023-03-25T00:57:46;140859.59;;;10.56;92.21
788;BME280;16074;42.708;23.312;2023-03-25T01:00:16;140863.22;;;10.58;90.84
788;BME280;16074;42.708;23.312;2023-03-25T01:02:48;140828.31;;;10.43;91.13
788;BME280;16074;42.708;23.312;2023-03-25T01:05:21;140836.72;;;10.47;90.78
788;BME280;16074;42.708;23.312;2023-03-25T01:07:49;140847.53;;;10.51;91.32
788;BME280;16074;42.708;23.312;2023-03-25T01:10:18;140811.47;;;10.36;91.39
788;BME280;16074;42.708;23.312;2023-03-25T01:12:46;140733.22;;;10.04;91.80
788;BME280;16074;42.708;23.312;2023-03-25T01:15:14;140641.69;;;9.66;94.17
788;BME280;16074;42.708;23.312;2023-03-25T01:17:43;140681.44;;;9.82;94.63
788;BME280;16074;42.708;23.312;2023-03-25T01:20:11;140691.06;;;9.86;94.20
788;BME280;16074;42.708;23.312;2023-03-25T01:22:41;140699.47;;;9.90;93.94
788;BME280;16074;42.708;23.312;2023-03-25T01:25:09;140723.59;;;10.00;95.08
788;BME280;16074;42.708;23.312;2023-03-25T01:27:37;140742.84;;;10.08;95.85
788;BME280;16074;42.708;23.312;2023-03-25T01:30:07;140759.72;;;10.15;95.16
788;BME280;16074;42.708;23.312;2023-03-25T01:32:35;140762.13;;;10.16;94.70
788;BME280;16074;42.708;23.312;2023-03-25T01:35:04;140765.69;;;10.17;95.48
788;BME280;16074;42.708;23.312;2023-03-25T01:37:33;140757.31;;;10.14;95.77
788;BME280;16074;42.708;23.312;2023-03-25T01:40:05;140694.66;;;9.88;95.13
788;BME280;16074;42.708;23.312;2023-03-25T01:42:36;140734.41;;;10.04;95.57
788;BME280;16074;42.708;23.312;2023-03-25T01:45:18;140748.84;;;10.10;95.33
788;BME280;16074;42.708;23.312;2023-03-25T01:47:50;140732.00;;;10.03;96.01
788;BME280;16074;42.708;23.312;2023-03-25T01:50:20;140741.63;;;10.07;95.39
788;BME280;16074;42.708;23.312;2023-03-25T01:52:49;140747.66;;;10.10;94.32
788;BME280;16074;42.708;23.312;2023-03-25T01:55:21;140716.31;;;9.97;95.27
788;BME280;16074;42.708;23.312;2023-03-25T01:57:51;140740.44;;;10.07;95.74
788;BME280;16074;42.708;23.312;2023-03-25T02:00:21;140742.84;;;10.08;95.55
788;BME280;16074;42.708;23.312;2023-03-25T02:02:56;140716.31;;;9.97;94.92
788;BME280;16074;42.708;23.312;2023-03-25T02:05:31;140711.50;;;9.95;93.79
788;BME280;16074;42.708;23.312;2023-03-25T02:08:04;140717.50;;;9.97;93.57
788;BME280;16074;42.708;23.312;2023-03-25T02:10:36;140744.03;;;10.08;92.92
788;BME280;16074;42.708;23.312;2023-03-25T02:13:05;140748.84;;;10.10;93.49
788;BME280;16074;42.708;23.312;2023-03-25T02:15:44;140751.25;;;10.11;94.71
788;BME280;16074;42.708;23.312;2023-03-25T02:18:30;140736.81;;;10.05;94.31
788;BME280;16074;42.708;23.312;2023-03-25T02:21:22;140670.56;;;9.78;94.58
788;BME280;16074;42.708;23.312;2023-03-25T02:27:28;140593.59;;;9.46;97.06
788;BME280;16074;42.708;23.312;2023-03-25T02:30:33;140529.88;;;9.20;98.87
788;BME280;16074;42.708;23.312;2023-03-25T02:33:44;140521.44;;;9.16;99.67
788;BME280;16074;42.708;23.312;2023-03-25T02:36:35;140526.25;;;9.18;99.60
788;BME280;16074;42.708;23.312;2023-03-25T02:39:12;140492.59;;;9.04;99.86
788;BME280;16074;42.708;23.312;2023-03-25T02:41:47;140476.94;;;8.98;100.00
788;BME280;16074;42.708;23.312;2023-03-25T02:44:26;140491.38;;;9.04;100.00
788;BME280;16074;42.708;23.312;2023-03-25T02:47:01;140490.19;;;9.03;100.00
788;BME280;16074;42.708;23.312;2023-03-25T02:49:35;140487.78;;;9.02;100.00
788;BME280;16074;42.708;23.312;2023-03-25T02:52:08;140481.75;;;9.00;100.00
788;BME280;16074;42.708;23.312;2023-03-25T02:54:40;140513.03;;;9.13;100.00
788;BME280;16074;42.708;23.312;2023-03-25T02:57:14;140505.81;;;9.10;100.00
788;BME280;16074;42.708;23.312;2023-03-25T02:59:45;140519.03;;;9.15;100.00
788;BME280;16074;42.708;23.312;2023-03-25T03:02:16;140509.41;;;9.11;100.00
788;BME280;16074;42.708;23.312;2023-03-25T03:04:50;140549.13;;;9.28;100.00
788;BME280;16074;42.708;23.312;2023-03-25T03:07:24;140574.34;;;9.38;100.00
788;BME280;16074;42.708;23.312;2023-03-25T03:10:01;140587.56;;;9.43;100.00
788;BME280;16074;42.708;23.312;2023-03-25T03:12:47;140553.94;;;9.30;100.00
788;BME280;16074;42.708;23.312;2023-03-25T03:15:27;140533.44;;;9.21;100.00
788;BME280;16074;42.708;23.312;2023-03-25T03:18:07;140569.53;;;9.36;100.00
788;BME280;16074;42.708;23.312;2023-03-25T03:20:43;140556.34;;;9.31;100.00
788;BME280;16074;42.708;23.312;2023-03-25T03:23:23;140545.47;;;9.26;100.00
788;BME280;16074;42.708;23.312;2023-03-25T03:26:00;140535.84;;;9.22;100.00
788;BME280;16074;42.708;23.312;2023-03-25T03:28:34;140546.72;;;9.27;100.00
788;BME280;16074;42.708;23.312;2023-03-25T03:31:11;140553.94;;;9.30;100.00
788;BME280;16074;42.708;23.312;2023-03-25T03:34:06;140546.72;;;9.27;100.00
788;BME280;16074;42.708;23.312;2023-03-25T03:36:40;140558.75;;;9.32;100.00
788;BME280;16074;42.708;23.312;2023-03-25T03:39:15;140553.94;;;9.30;100.00
788;BME280;16074;42.708;23.312;2023-03-25T03:41:51;140550.28;;;9.28;100.00
788;BME280;16074;42.708;23.312;2023-03-25T03:44:24;140546.72;;;9.27;100.00
788;BME280;16074;42.708;23.312;2023-03-25T03:46:58;140552.69;;;9.29;100.00
788;BME280;16074;42.708;23.312;2023-03-25T03:49:34;140547.88;;;9.27;100.00
788;BME280;16074;42.708;23.312;2023-03-25T03:52:07;140550.28;;;9.28;100.00
788;BME280;16074;42.708;23.312;2023-03-25T03:54:41;140533.44;;;9.21;100.00
788;BME280;16074;42.708;23.312;2023-03-25T03:57:17;140550.28;;;9.28;100.00
788;BME280;16074;42.708;23.312;2023-03-25T03:59:52;140541.91;;;9.25;100.00
788;BME280;16074;42.708;23.312;2023-03-25T04:02:27;140511.81;;;9.12;100.00
788;BME280;16074;42.708;23.312;2023-03-25T04:04:58;140451.72;;;8.87;100.00
788;BME280;16074;42.708;23.312;2023-03-25T04:07:33;140454.13;;;8.88;100.00
788;BME280;16074;42.708;23.312;2023-03-25T04:10:10;140431.25;;;8.79;100.00
788;BME280;16074;42.708;23.312;2023-03-25T04:12:44;140365.16;;;8.51;100.00
788;BME280;16074;42.708;23.312;2023-03-25T04:15:14;140314.72;;;8.30;100.00
788;BME280;16074;42.708;23.312;2023-03-25T04:17:42;140299.06;;;8.24;100.00
788;BME280;16074;42.708;23.312;2023-03-25T04:20:14;140252.16;;;8.05;100.00
788;BME280;16074;42.708;23.312;2023-03-25T04:22:42;140285.88;;;8.19;100.00
788;BME280;16074;42.708;23.312;2023-03-25T04:25:12;140318.28;;;8.32;100.00
788;BME280;16074;42.708;23.312;2023-03-25T04:27:42;140309.91;;;8.28;100.00
788;BME280;16074;42.708;23.312;2023-03-25T04:30:15;140354.34;;;8.47;100.00
788;BME280;16074;42.708;23.312;2023-03-25T04:32:45;140362.75;;;8.50;100.00
788;BME280;16074;42.708;23.312;2023-03-25T04:35:14;140377.16;;;8.56;100.00
788;BME280;16074;42.708;23.312;2023-03-25T04:37:45;140361.56;;;8.50;100.00
788;BME280;16074;42.708;23.312;2023-03-25T04:40:15;140383.19;;;8.59;100.00
788;BME280;16074;42.708;23.312;2023-03-25T04:42:46;140394.00;;;8.63;100.00
788;BME280;16074;42.708;23.312;2023-03-25T04:45:15;140408.44;;;8.69;100.00
788;BME280;16074;42.708;23.312;2023-03-25T04:47:44;140422.84;;;8.75;100.00
788;BME280;16074;42.708;23.312;2023-03-25T04:50:18;140398.81;;;8.65;100.00
788;BME280;16074;42.708;23.312;2023-03-25T04:52:48;140419.28;;;8.74;100.00
788;BME280;16074;42.708;23.312;2023-03-25T04:55:16;140452.91;;;8.88;100.00
788;BME280;16074;42.708;23.312;2023-03-25T04:57:48;140443.28;;;8.84;100.00
788;BME280;16074;42.708;23.312;2023-03-25T05:00:17;140464.91;;;8.93;100.00
788;BME280;16074;42.708;23.312;2023-03-25T05:02:47;140436.06;;;8.81;100.00
788;BME280;16074;42.708;23.312;2023-03-25T05:05:18;140402.44;;;8.67;100.00
788;BME280;16074;42.708;23.312;2023-03-25T05:07:47;140439.69;;;8.82;100.00
788;BME280;16074;42.708;23.312;2023-03-25T05:10:16;140464.91;;;8.93;100.00
788;BME280;16074;42.708;23.312;2023-03-25T05:12:46;140437.28;;;8.81;100.00
788;BME280;16074;42.708;23.312;2023-03-25T05:15:15;140402.44;;;8.67;100.00
788;BME280;16074;42.708;23.312;2023-03-25T05:17:44;140410.84;;;8.70;100.00
788;BME280;16074;42.708;23.312;2023-03-25T05:20:12;140440.88;;;8.83;100.00
788;BME280;16074;42.708;23.312;2023-03-25T05:22:42;140481.75;;;9.00;100.00
788;BME280;16074;42.708;23.312;2023-03-25T05:25:11;140523.84;;;9.17;100.00
788;BME280;16074;42.708;23.312;2023-03-25T05:27:39;140532.28;;;9.21;100.00
788;BME280;16074;42.708;23.312;2023-03-25T05:30:10;140576.75;;;9.39;100.00
788;BME280;16074;42.708;23.312;2023-03-25T05:32:38;140592.38;;;9.45;100.00
788;BME280;16074;42.708;23.312;2023-03-25T05:35:08;140620.06;;;9.57;100.00
788;BME280;16074;42.708;23.312;2023-03-25T05:37:36;140636.88;;;9.64;100.00
788;BME280;16074;42.708;23.312;2023-03-25T05:40:06;140656.13;;;9.72;99.84
788;BME280;16074;42.708;23.312;2023-03-25T05:42:41;140653.72;;;9.71;99.87
788;BME280;16074;42.708;23.312;2023-03-25T05:45:16;140677.81;;;9.81;99.90
788;BME280;16074;42.708;23.312;2023-03-25T05:47:44;140712.69;;;9.95;98.78
788;BME280;16074;42.708;23.312;2023-03-25T05:50:13;140732.00;;;10.03;98.73
788;BME280;16074;42.708;23.312;2023-03-25T05:52:41;140729.59;;;10.02;98.73
788;BME280;16074;42.708;23.312;2023-03-25T05:55:11;140763.28;;;10.16;98.54
788;BME280;16074;42.708;23.312;2023-03-25T05:57:41;140787.38;;;10.26;98.65
788;BME280;16074;42.708;23.312;2023-03-25T06:00:11;140793.38;;;10.29;98.79
788;BME280;16074;42.708;23.312;2023-03-25T06:02:43;140803.00;;;10.33;97.95
788;BME280;16074;42.708;23.312;2023-03-25T06:05:13;140836.72;;;10.47;97.63
788;BME280;16074;42.708;23.312;2023-03-25T06:07:42;140851.19;;;10.53;97.09
788;BME280;16074;42.708;23.312;2023-03-25T06:10:12;140880.09;;;10.65;96.11
788;BME280;16074;42.708;23.312;2023-03-25T06:12:43;140892.13;;;10.69;96.69
788;BME280;16074;42.708;23.312;2023-03-25T06:15:14;140916.19;;;10.79;94.75
788;BME280;16074;42.708;23.312;2023-03-25T06:17:45;140935.47;;;10.87;93.16
788;BME280;16074;42.708;23.312;2023-03-25T06:20:14;140969.19;;;11.01;92.21
788;BME280;16074;42.708;23.312;2023-03-25T06:22:45;140995.72;;;11.12;91.26
788;BME280;16074;42.708;23.312;2023-03-25T06:25:14;141000.53;;;11.14;89.50
788;BME280;16074;42.708;23.312;2023-03-25T06:27:45;141041.50;;;11.31;89.47
788;BME280;16074;42.708;23.312;2023-03-25T06:30:17;141054.75;;;11.37;87.73
788;BME280;16074;42.708;23.312;2023-03-25T06:32:47;141092.09;;;11.52;87.93
788;BME280;16074;42.708;23.312;2023-03-25T06:35:18;141122.25;;;11.65;86.16
788;BME280;16074;42.708;23.312;2023-03-25T06:37:47;141141.53;;;11.73;84.50
788;BME280;16074;42.708;23.312;2023-03-25T06:40:25;141171.72;;;11.85;83.01
788;BME280;16074;42.708;23.312;2023-03-25T06:42:53;141175.31;;;11.87;82.66
788;BME280;16074;42.708;23.312;2023-03-25T06:45:40;141227.16;;;12.08;82.52
788;BME280;16074;42.708;23.312;2023-03-25T06:48:39;141281.41;;;12.30;80.52
788;BME280;16074;42.708;23.312;2023-03-25T06:51:08;141315.19;;;12.44;80.49
788;BME280;16074;42.708;23.312;2023-03-25T06:53:36;141350.16;;;12.59;78.45
788;BME280;16074;42.708;23.312;2023-03-25T06:56:06;141371.88;;;12.68;76.78
788;BME280;16074;42.708;23.312;2023-03-25T06:58:34;141432.28;;;12.93;76.68
788;BME280;16074;42.708;23.312;2023-03-25T07:01:03;141456.44;;;13.03;75.09
788;BME280;16074;42.708;23.312;2023-03-25T07:03:34;141511.94;;;13.25;73.72
788;BME280;16074;42.708;23.312;2023-03-25T07:06:05;141521.59;;;13.29;72.18
788;BME280;16074;42.708;23.312;2023-03-25T07:08:33;141565.06;;;13.47;71.33
788;BME280;16074;42.708;23.312;2023-03-25T07:11:03;141594.03;;;13.59;71.10
788;BME280;16074;42.708;23.312;2023-03-25T07:13:33;141661.66;;;13.87;70.28
788;BME280;16074;42.708;23.312;2023-03-25T07:16:01;141709.97;;;14.07;68.92
788;BME280;16074;42.708;23.312;2023-03-25T07:18:30;141723.25;;;14.13;68.62
788;BME280;16074;42.708;23.312;2023-03-25T07:20:58;141812.69;;;14.49;67.34
788;BME280;16074;42.708;23.312;2023-03-25T07:23:28;141925.13;;;14.96;66.45
788;BME280;16074;42.708;23.312;2023-03-25T07:25:57;142021.88;;;15.36;64.83
788;BME280;16074;42.708;23.312;2023-03-25T07:28:25;142128.38;;;15.79;62.31
788;BME280;16074;42.708;23.312;2023-03-25T07:30:53;142197.34;;;16.08;60.60
788;BME280;16074;42.708;23.312;2023-03-25T07:33:22;142314.78;;;16.56;58.92
788;BME280;16074;42.708;23.312;2023-03-25T07:35:50;142388.66;;;16.86;57.59
788;BME280;16074;42.708;23.312;2023-03-25T07:38:19;142480.72;;;17.24;55.83
788;BME280;16074;42.708;23.312;2023-03-25T07:40:48;142551.03;;;17.53;55.57
788;BME280;16074;42.708;23.312;2023-03-25T07:43:17;142621.34;;;17.82;54.05
788;BME280;16074;42.708;23.312;2023-03-25T07:45:53;142685.59;;;18.08;53.20
788;BME280;16074;42.708;23.312;2023-03-25T07:48:22;142758.38;;;18.38;52.12
788;BME280;16074;42.708;23.312;2023-03-25T07:50:51;142800.81;;;18.56;51.37
788;BME280;16074;42.708;23.312;2023-03-25T07:53:19;142834.78;;;18.70;51.57
788;BME280;16074;42.708;23.312;2023-03-25T07:55:49;142827.50;;;18.67;49.73
788;BME280;16074;42.708;23.312;2023-03-25T07:58:18;142918.50;;;19.04;50.31
788;BME280;16074;42.708;23.312;2023-03-25T08:00:47;143014.44;;;19.43;49.14
788;BME280;16074;42.708;23.312;2023-03-25T08:03:15;143029.00;;;19.49;48.40
788;BME280;16074;42.708;23.312;2023-03-25T08:05:44;143096.94;;;19.77;46.86
788;BME280;16074;42.708;23.312;2023-03-25T08:08:14;143282.81;;;20.53;45.27
788;BME280;16074;42.708;23.312;2023-03-25T08:10:42;143393.47;;;20.99;44.26
788;BME280;16074;42.708;23.312;2023-03-25T08:13:13;143335.06;;;20.75;44.28
788;BME280;16074;42.708;23.312;2023-03-25T08:15:42;143470.03;;;21.30;44.56
788;BME280;16074;42.708;23.312;2023-03-25T08:18:10;143541.81;;;21.60;43.40
788;BME280;16074;42.708;23.312;2023-03-25T08:20:39;143588.06;;;21.78;43.17
788;BME280;16074;42.708;23.312;2023-03-25T08:23:07;143551.56;;;21.64;42.58
788;BME280;16074;42.708;23.312;2023-03-25T08:25:36;143654.94;;;22.06;42.33
788;BME280;16074;42.708;23.312;2023-03-25T08:28:05;143740.13;;;22.41;41.18
788;BME280;16074;42.708;23.312;2023-03-25T08:30:36;143783.97;;;22.59;41.10
788;BME280;16074;42.708;23.312;2023-03-25T08:33:07;143805.84;;;22.68;40.16
788;BME280;16074;42.708;23.312;2023-03-25T08:35:38;143742.56;;;22.42;40.27
788;BME280;16074;42.708;23.312;2023-03-25T08:38:06;143779.09;;;22.57;40.32
788;BME280;16074;42.708;23.312;2023-03-25T08:40:35;143781.53;;;22.58;39.88
788;BME280;16074;42.708;23.312;2023-03-25T08:43:04;143821.69;;;22.74;40.29
788;BME280;16074;42.708;23.312;2023-03-25T08:45:33;143894.69;;;23.04;39.33
788;BME280;16074;42.708;23.312;2023-03-25T08:48:04;143949.53;;;23.26;39.43
788;BME280;16074;42.708;23.312;2023-03-25T08:50:32;143958.09;;;23.30;38.74
788;BME280;16074;42.708;23.312;2023-03-25T08:53:00;144050.63;;;23.68;38.46
788;BME280;16074;42.708;23.312;2023-03-25T08:55:29;144115.25;;;23.94;37.63
788;BME280;16074;42.708;23.312;2023-03-25T08:58:00;144164.00;;;24.14;37.08
788;BME280;16074;42.708;23.312;2023-03-25T09:00:29;144150.56;;;24.09;37.35
788;BME280;16074;42.708;23.312;2023-03-25T09:02:58;144116.50;;;23.95;37.78
788;BME280;16074;42.708;23.312;2023-03-25T09:05:28;144140.88;;;24.05;37.58
788;BME280;16074;42.708;23.312;2023-03-25T09:07:56;144192.00;;;24.25;37.06
788;BME280;16074;42.708;23.312;2023-03-25T09:10:24;144103.06;;;23.89;37.66
788;BME280;16074;42.708;23.312;2023-03-25T09:12:53;144145.75;;;24.07;37.62
788;BME280;16074;42.708;23.312;2023-03-25T09:15:21;144216.41;;;24.35;37.81
788;BME280;16074;42.708;23.312;2023-03-25T09:17:49;144320.06;;;24.78;36.86
788;BME280;16074;42.708;23.312;2023-03-25T09:20:18;144379.81;;;25.02;36.27
788;BME280;16074;42.708;23.312;2023-03-25T09:22:47;144444.50;;;25.29;35.89
788;BME280;16074;42.708;23.312;2023-03-25T09:25:16;144514.03;;;25.57;34.49
788;BME280;16074;42.708;23.312;2023-03-25T09:27:44;144556.72;;;25.74;34.75
788;BME280;16074;42.708;23.312;2023-03-25T09:30:13;144501.81;;;25.52;34.75
788;BME280;16074;42.708;23.312;2023-03-25T09:32:41;144557.97;;;25.75;34.44
788;BME280;16074;42.708;23.312;2023-03-25T09:35:10;144498.16;;;25.50;35.07
788;BME280;16074;42.708;23.312;2023-03-25T09:37:38;144416.47;;;25.17;35.22
788;BME280;16074;42.708;23.312;2023-03-25T09:40:10;144301.75;;;24.70;36.01
788;BME280;16074;42.708;23.312;2023-03-25T09:42:47;144350.53;;;24.90;35.65
788;BME280;16074;42.708;23.312;2023-03-25T09:45:27;144343.22;;;24.87;35.77
788;BME280;16074;42.708;23.312;2023-03-25T09:48:02;144371.25;;;24.99;35.69
788;BME280;16074;42.708;23.312;2023-03-25T09:50:32;144467.66;;;25.38;34.48
788;BME280;16074;42.708;23.312;2023-03-25T09:53:05;144522.56;;;25.60;34.20
788;BME280;16074;42.708;23.312;2023-03-25T09:55:40;144415.22;;;25.17;34.53
788;BME280;16074;42.708;23.312;2023-03-25T09:58:25;144455.47;;;25.33;33.61
788;BME280;16074;42.708;23.312;2023-03-25T10:00:57;144504.28;;;25.53;33.69
788;BME280;16074;42.708;23.312;2023-03-25T10:03:31;144482.31;;;25.44;33.50
788;BME280;16074;42.708;23.312;2023-03-25T10:06:13;144510.34;;;25.55;32.42
788;BME280;16074;42.708;23.312;2023-03-25T10:08:55;144499.38;;;25.51;31.36
788;BME280;16074;42.708;23.312;2023-03-25T10:11:34;144561.59;;;25.76;31.50
788;BME280;16074;42.708;23.312;2023-03-25T10:14:09;144488.44;;;25.47;31.78
788;BME280;16074;42.708;23.312;2023-03-25T10:16:49;144545.75;;;25.70;31.22
788;BME280;16074;42.708;23.312;2023-03-25T10:19:33;144516.47;;;25.58;31.66
788;BME280;16074;42.708;23.312;2023-03-25T10:22:09;144486.00;;;25.46;31.29
788;BME280;16074;42.708;23.312;2023-03-25T10:24:44;144503.03;;;25.52;30.45
788;BME280;16074;42.708;23.312;2023-03-25T10:27:20;144534.75;;;25.65;30.87
788;BME280;16074;42.708;23.312;2023-03-25T10:29:52;144570.13;;;25.80;30.54
788;BME280;16074;42.708;23.312;2023-03-25T10:32:30;144661.72;;;26.17;30.25
788;BME280;16074;42.708;23.312;2023-03-25T10:35:02;144695.91;;;26.31;30.11
788;BME280;16074;42.708;23.312;2023-03-25T10:37:33;144736.22;;;26.48;30.00
788;BME280;16074;42.708;23.312;2023-03-25T10:40:12;144687.38;;;26.28;30.16
788;BME280;16074;42.708;23.312;2023-03-25T10:42:49;144797.28;;;26.73;29.67
788;BME280;16074;42.708;23.312;2023-03-25T10:45:24;144728.91;;;26.45;28.89
788;BME280;16074;42.708;23.312;2023-03-25T10:47:55;144800.94;;;26.74;29.39
788;BME280;16074;42.708;23.312;2023-03-25T10:50:28;144835.13;;;26.88;28.97
788;BME280;16074;42.708;23.312;2023-03-25T10:52:56;144722.75;;;26.42;30.21
788;BME280;16074;42.708;23.312;2023-03-25T10:55:27;144721.53;;;26.42;30.36
788;BME280;16074;42.708;23.312;2023-03-25T10:58:02;144755.75;;;26.56;29.93
788;BME280;16074;42.708;23.312;2023-03-25T11:00:31;144754.56;;;26.55;30.07
788;BME280;16074;42.708;23.312;2023-03-25T11:03:00;144739.91;;;26.49;30.32
788;BME280;16074;42.708;23.312;2023-03-25T11:05:29;144727.69;;;26.44;31.09
788;BME280;16074;42.708;23.312;2023-03-25T11:07:59;144733.78;;;26.47;30.87
788;BME280;16074;42.708;23.312;2023-03-25T11:10:47;144721.53;;;26.42;31.01
788;BME280;16074;42.708;23.312;2023-03-25T11:13:18;144766.78;;;26.60;31.55
788;BME280;16074;42.708;23.312;2023-03-25T11:15:51;144891.38;;;27.11;31.25
788;BME280;16074;42.708;23.312;2023-03-25T11:18:25;144952.44;;;27.36;30.23
788;BME280;16074;42.708;23.312;2023-03-25T11:20:59;145041.69;;;27.72;29.54
788;BME280;16074;42.708;23.312;2023-03-25T11:23:30;145095.50;;;27.94;29.49
788;BME280;16074;42.708;23.312;2023-03-25T11:26:03;145088.16;;;27.91;29.64
788;BME280;16074;42.708;23.312;2023-03-25T11:28:38;145165.16;;;28.22;28.71
788;BME280;16074;42.708;23.312;2023-03-25T11:31:11;145203.09;;;28.38;28.35
788;BME280;16074;42.708;23.312;2023-03-25T11:33:40;145220.22;;;28.45;27.81
788;BME280;16074;42.708;23.312;2023-03-25T11:36:11;145210.44;;;28.41;27.65
788;BME280;16074;42.708;23.312;2023-03-25T11:38:40;145183.53;;;28.30;27.75
788;BME280;16074;42.708;23.312;2023-03-25T11:41:13;145138.25;;;28.11;27.33
788;BME280;16074;42.708;23.312;2023-03-25T11:43:46;145035.59;;;27.70;28.12
788;BME280;16074;42.708;23.312;2023-03-25T11:46:17;144997.63;;;27.54;27.82
788;BME280;16074;42.708;23.312;2023-03-25T11:48:48;144836.38;;;26.88;28.53
788;BME280;16074;42.708;23.312;2023-03-25T11:51:20;144836.38;;;26.88;29.00
788;BME280;16074;42.708;23.312;2023-03-25T11:53:54;144855.88;;;26.96;29.20
788;BME280;16074;42.708;23.312;2023-03-25T11:56:30;144917.03;;;27.21;29.57
788;BME280;16074;42.708;23.312;2023-03-25T11:59:02;144980.56;;;27.47;29.06
788;BME280;16074;42.708;23.312;2023-03-25T12:01:37;145006.22;;;27.58;28.51
788;BME280;16074;42.708;23.312;2023-03-25T12:04:13;144871.78;;;27.03;29.28
788;BME280;16074;42.708;23.312;2023-03-25T12:06:53;144928.00;;;27.26;28.94
788;BME280;16074;42.708;23.312;2023-03-25T12:09:23;144864.47;;;27.00;28.96
788;BME280;16074;42.708;23.312;2023-03-25T12:12:06;144782.63;;;26.67;29.25
788;BME280;16074;42.708;23.312;2023-03-25T12:14:50;144653.19;;;26.14;29.53
788;BME280;16074;42.708;23.312;2023-03-25T12:17:29;144556.72;;;25.74;30.19
788;BME280;16074;42.708;23.312;2023-03-25T12:20:11;144551.84;;;25.72;30.10
788;BME280;16074;42.708;23.312;2023-03-25T12:22:54;144390.78;;;25.07;30.69
788;BME280;16074;42.708;23.312;2023-03-25T12:25:29;144329.84;;;24.82;31.13
788;BME280;16074;42.708;23.312;2023-03-25T12:30:58;144299.31;;;24.69;31.70
788;BME280;16074;42.708;23.312;2023-03-25T12:33:37;144227.34;;;24.40;31.67
788;BME280;16074;42.708;23.312;2023-03-25T12:36:19;144200.56;;;24.29;31.69
788;BME280;16074;42.708;23.312;2023-03-25T12:39:00;144162.75;;;24.14;31.93
788;BME280;16074;42.708;23.312;2023-03-25T12:41:39;144221.28;;;24.37;31.95
788;BME280;16074;42.708;23.312;2023-03-25T12:44:17;144120.13;;;23.96;32.48
788;BME280;16074;42.708;23.312;2023-03-25T12:47:05;144087.25;;;23.83;32.36
788;BME280;16074;42.708;23.312;2023-03-25T12:49:49;144083.56;;;23.81;32.67
788;BME280;16074;42.708;23.312;2023-03-25T12:52:27;144079.94;;;23.80;32.60
788;BME280;16074;42.708;23.312;2023-03-25T12:55:02;144103.06;;;23.89;32.42
788;BME280;16074;42.708;23.312;2023-03-25T12:57:47;144040.88;;;23.64;32.96
788;BME280;16074;42.708;23.312;2023-03-25T13:00:25;144027.50;;;23.58;32.66
788;BME280;16074;42.708;23.312;2023-03-25T13:03:25;144045.75;;;23.66;32.67
788;BME280;16074;42.708;23.312;2023-03-25T13:05:59;144025.06;;;23.57;33.39
788;BME280;16074;42.708;23.312;2023-03-25T13:08:33;143997.06;;;23.46;32.75
788;BME280;16074;42.708;23.312;2023-03-25T13:11:06;143947.09;;;23.25;33.11
788;BME280;16074;42.708;23.312;2023-03-25T13:13:37;143855.78;;;22.88;34.08
788;BME280;16074;42.708;23.312;2023-03-25T13:16:09;143790.03;;;22.61;34.09
788;BME280;16074;42.708;23.312;2023-03-25T13:18:43;143748.63;;;22.44;34.89
788;BME280;16074;42.708;23.312;2023-03-25T13:21:16;143753.50;;;22.46;35.25
788;BME280;16074;42.708;23.312;2023-03-25T13:23:51;143578.31;;;21.74;35.98
788;BME280;16074;42.708;23.312;2023-03-25T13:26:23;143522.31;;;21.52;36.36
788;BME280;16074;42.708;23.312;2023-03-25T13:28:58;143524.75;;;21.53;36.20
788;BME280;16074;42.708;23.312;2023-03-25T13:31:32;143482.19;;;21.35;36.38
788;BME280;16074;42.708;23.312;2023-03-25T13:34:15;143489.50;;;21.38;36.28